Kirkwood, CA (95646)

10:40 PM PDT on May 23, 2015 (GMT -0700)
Bear Valley (7201 ft) | | Change Station
CLOSE
Current Station
Personal Weather Station
Location: Bear Valley, CA
Elevation: 7333 ft
Nearby Weather Stations

Elev 7333 ft 38.47 °N, 120.05 °W | Updated 7 seconds ago

Overcast
Overcast
38.5 °F
Feels Like 38 °F
N
0.0
Wind Variable Wind from North

Today
High -- | Low -- °F
--% Chance of Precip.
Yesterday
High -- | Low -- °F
Precip. -- in
5:42 AM 8:12 PM
Waxing Crescent, 36% visible
Pressure 29.98 in
Visibility 10.0 miles
Clouds Scattered Clouds 3300 ft
Mostly Cloudy 4600 ft
Overcast 7000 ft
Windchill 38 °F
Dew Point 35 °F
Humidity 88%
Rainfall 0.15 in
Snow Depth Not available.
UV 0.0 out of 12
Pollen 6.50 out of 12
Air Quality Not available.
Flu Activity Sporadic
METAR KBAN 240452Z AUTO 00000KT 10SM SCT033 BKN046 OVC070 06/02 A3010 RMK AO2 SLP152 T00610022 $

More Conditions Fewer Conditions

Pressure 29.98 in
Visibility 10.0 miles
Clouds Scattered Clouds 3300 ft
Mostly Cloudy 4600 ft
Overcast 7000 ft
Windchill 38 °F
Dew Point 35 °F
Humidity 88%
Rainfall 0.15 in
Snow Depth Not available.
UV 0.0 out of 12
Pollen 6.50 out of 12
Air Quality Not available.
Flu Activity Sporadic
METAR KBAN 240452Z AUTO 00000KT 10SM SCT033 BKN046 OVC070 06/02 A3010 RMK AO2 SLP152 T00610022 $

More Conditions Fewer Conditions

10-Day Weather Forecast

Almanac

Astronomy

May. 23, 2015 Rise Set
Actual Time
Civil Twilight
Nautical Twilight
Astronomical Twilight
Moon
Length of Visible Light
Length of Day
Tomorrow will be .
, % of the Moon is Illuminated

Today's Extremes

State Highs State Lows

Community

WunderPhotos

Upload Photos

1,823,693 photos uploaded!

WunderBlogs® & News

Nearby

Air Quality

  Air Quality AQ Index Pollutant
Not available.

Snow Depth

Station Depth Elevation

Earthquake Activity

City Distance Mag. Time & Date
Minimum magnitude displayed is 2.5.

Coastal Water Temperatures

Place Temperature

Stations

Nearby Weather Stations

Station Location Temp. Windchill Dew Point Humidity Wind Precip. Elev Updated Type